Terminal Aerodrome Forecast
Issued by NWS Wilmington, NC

Current Version | Previous Version | Text Only | Print | Product List | Glossary On
Versions: 1 2 3 4 5 6 7 8 9 10 11 12
000
FTUS42 KILM 262320
TAFFLO
TAF
KFLO 262320Z 2700/2724 21006KT P6SM SCT040 SCT080
     FM271200 25007KT P6SM SKC
     FM271800 23009KT P6SM FEW050=

USA.gov is the U.S. government's official web portal to all federal, state and local government web resources and services.